createdAt,value
2022-08-11T00:01:24.617Z,52.00
2022-08-11T00:03:56.189Z,52.20
2022-08-11T00:06:39.926Z,51.80
2022-08-11T00:09:13.191Z,52.40
2022-08-11T00:11:58.618Z,52.40
2022-08-11T00:14:37.745Z,52.80
2022-08-11T00:17:15.916Z,52.10
2022-08-11T00:20:11.561Z,52.40
2022-08-11T00:22:34.785Z,53.00
2022-08-11T00:25:12.792Z,53.40
2022-08-11T00:27:40.769Z,54.30
2022-08-11T00:30:12.024Z,54.20
2022-08-11T00:32:41.592Z,55.20
2022-08-11T00:35:51.968Z,54.90
2022-08-11T00:38:02.819Z,55.40
2022-08-11T00:40:45.640Z,54.40
2022-08-11T00:43:23.838Z,54.60
2022-08-11T00:46:11.396Z,54.80
2022-08-11T00:49:07.838Z,55.10
2022-08-11T00:52:12.812Z,54.70
2022-08-11T00:54:39.421Z,56.20
2022-08-11T00:57:37.307Z,54.60
2022-08-11T01:00:15.610Z,55.50
2022-08-11T01:02:52.777Z,55.00
2022-08-11T01:05:37.871Z,54.00
2022-08-11T01:08:31.418Z,54.00
2022-08-11T01:11:20.179Z,53.70
2022-08-11T01:14:33.742Z,53.80
2022-08-11T01:17:10.446Z,53.40
2022-08-11T01:20:47.695Z,53.30
2022-08-11T01:23:33.278Z,53.80
2022-08-11T01:26:02.976Z,53.90
2022-08-11T01:28:56.341Z,53.80
2022-08-11T01:31:49.381Z,53.70
2022-08-11T01:34:24.980Z,54.20
2022-08-11T01:37:16.378Z,54.10
2022-08-11T01:39:58.304Z,53.70
2022-08-11T01:43:21.561Z,53.60
2022-08-11T01:45:59.577Z,53.70
2022-08-11T01:48:34.347Z,53.30
2022-08-11T01:51:25.161Z,53.70
2022-08-11T01:54:04.419Z,53.80
2022-08-11T01:57:11.580Z,54.00
2022-08-11T01:59:51.087Z,53.70
2022-08-11T02:02:58.319Z,53.90
2022-08-11T02:05:46.802Z,53.70
2022-08-11T02:08:50.779Z,53.90
2022-08-11T02:11:30.977Z,53.90
2022-08-11T02:14:12.555Z,53.90
2022-08-11T02:17:22.876Z,53.60
2022-08-11T02:20:42.044Z,53.80
2022-08-11T02:24:04.101Z,53.80
2022-08-11T02:26:54.903Z,54.10
2022-08-11T02:29:32.379Z,54.30
2022-08-11T02:32:40.074Z,54.10
2022-08-11T02:35:12.481Z,53.90
2022-08-11T02:37:50.370Z,54.30
2022-08-11T02:40:44.575Z,53.90
2022-08-11T02:43:18.934Z,54.30
2022-08-11T02:45:54.698Z,54.40
2022-08-11T02:49:09.809Z,54.70
2022-08-11T02:52:10.261Z,54.50
2022-08-11T02:54:36.880Z,54.40
2022-08-11T02:57:13.133Z,54.60
2022-08-11T03:00:08.505Z,54.90
2022-08-11T03:02:51.397Z,54.80
2022-08-11T03:05:36.546Z,55.00
2022-08-11T03:08:14.303Z,54.80
2022-08-11T03:11:18.746Z,54.90
2022-08-11T03:14:36.679Z,55.10
2022-08-11T03:17:30.115Z,54.80
2022-08-11T03:20:33.164Z,55.30
2022-08-11T03:23:32.367Z,55.40
2022-08-11T03:26:10.913Z,55.50
2022-08-11T03:28:51.566Z,56.00
2022-08-11T03:31:46.210Z,55.90
2022-08-11T03:34:23.202Z,56.00
2022-08-11T03:37:37.603Z,56.90
2022-08-11T03:40:40.962Z,56.50
2022-08-11T03:43:45.674Z,56.70
2022-08-11T03:46:57.285Z,57.90
2022-08-11T03:49:42.907Z,57.70
2022-08-11T03:52:47.431Z,58.10
2022-08-11T03:55:38.501Z,58.90
2022-08-11T03:58:20.106Z,58.60
2022-08-11T04:01:01.991Z,59.40
2022-08-11T04:04:08.623Z,59.70
2022-08-11T04:06:59.916Z,59.20
2022-08-11T04:09:59.153Z,60.10
2022-08-11T04:12:36.280Z,60.10
2022-08-11T04:15:46.497Z,59.80
2022-08-11T04:18:54.722Z,60.80
2022-08-11T04:21:39.985Z,61.90
2022-08-11T04:24:38.415Z,62.20
2022-08-11T04:27:40.250Z,62.70
2022-08-11T04:30:40.562Z,63.10
2022-08-11T04:33:35.239Z,63.20
2022-08-11T04:36:41.596Z,62.90
2022-08-11T04:39:42.072Z,63.60
2022-08-11T04:43:00.672Z,63.00
2022-08-11T04:45:35.926Z,63.50
2022-08-11T04:48:55.676Z,63.70
2022-08-11T04:51:49.515Z,65.10
2022-08-11T04:55:05.259Z,64.80
2022-08-11T04:58:31.436Z,64.00
2022-08-11T05:01:38.977Z,63.80
2022-08-11T05:04:49.353Z,63.20
2022-08-11T05:07:30.721Z,64.70
2022-08-11T05:10:24.809Z,65.10
2022-08-11T05:13:22.455Z,64.50
2022-08-11T05:16:16.435Z,63.20
2022-08-11T05:19:11.375Z,64.00
2022-08-11T05:22:00.090Z,64.70
2022-08-11T05:24:55.478Z,64.00
2022-08-11T05:27:48.425Z,63.50
2022-08-11T05:30:34.563Z,62.30
2022-08-11T05:33:28.372Z,61.90
2022-08-11T05:36:10.849Z,61.10
2022-08-11T05:38:57.110Z,60.10
2022-08-11T05:41:47.309Z,59.70
2022-08-11T05:44:39.510Z,59.60
2022-08-11T05:47:26.004Z,58.80
2022-08-11T05:50:13.681Z,58.90
2022-08-11T05:53:04.631Z,58.60
2022-08-11T05:56:01.839Z,58.30
2022-08-11T05:58:42.428Z,58.10
2022-08-11T06:01:13.140Z,57.80
2022-08-11T06:04:03.321Z,57.50
2022-08-11T06:06:31.052Z,57.60
2022-08-11T06:08:59.329Z,57.50
2022-08-11T06:11:43.928Z,57.60
2022-08-11T06:14:13.215Z,57.30
2022-08-11T06:16:44.583Z,57.00
2022-08-11T06:19:11.947Z,57.10
2022-08-11T06:21:44.613Z,56.70
2022-08-11T06:24:16.356Z,56.90
2022-08-11T06:27:11.187Z,56.50
2022-08-11T06:29:47.804Z,56.30
2022-08-11T06:32:18.297Z,56.40
2022-08-11T06:35:07.542Z,56.10
2022-08-11T06:38:04.956Z,56.00
2022-08-11T06:41:06.644Z,56.00
2022-08-11T06:44:03.261Z,55.70
2022-08-11T06:46:38.992Z,55.90
2022-08-11T06:49:27.774Z,56.00
2022-08-11T06:52:00.713Z,56.10
2022-08-11T06:54:41.313Z,56.10
2022-08-11T06:57:32.449Z,56.10
2022-08-11T07:00:22.182Z,55.80
2022-08-11T07:02:53.326Z,56.30
2022-08-11T07:05:43.893Z,55.30
2022-08-11T07:08:47.437Z,55.20
2022-08-11T07:11:48.147Z,55.00
2022-08-11T07:14:42.240Z,54.90
2022-08-11T07:17:14.917Z,54.70
2022-08-11T07:20:06.277Z,54.60
2022-08-11T07:23:10.293Z,54.50
2022-08-11T07:26:01.914Z,54.30
2022-08-11T07:28:49.250Z,54.20
2022-08-11T07:31:44.628Z,54.40
2022-08-11T07:34:32.701Z,53.80
2022-08-11T07:37:03.564Z,53.90
2022-08-11T07:39:38.254Z,53.90
2022-08-11T07:42:11.673Z,53.40
2022-08-11T07:45:02.731Z,53.40
2022-08-11T07:47:48.624Z,53.30
2022-08-11T07:50:34.755Z,53.00
2022-08-11T07:53:03.844Z,53.70
2022-08-11T07:55:51.837Z,52.90
2022-08-11T07:58:45.734Z,52.80
2022-08-11T08:01:41.736Z,52.60
2022-08-11T08:04:30.526Z,52.40
2022-08-11T08:07:17.701Z,52.20
2022-08-11T08:10:04.139Z,52.10
2022-08-11T08:12:50.630Z,52.20
2022-08-11T08:15:40.067Z,52.30
2022-08-11T08:18:26.962Z,51.60
2022-08-11T08:21:12.015Z,51.80
2022-08-11T08:23:40.894Z,51.80
2022-08-11T08:26:30.442Z,51.80
2022-08-11T08:29:19.527Z,51.70
2022-08-11T08:31:51.549Z,51.20
2022-08-11T08:34:19.326Z,51.20
2022-08-11T08:36:48.342Z,51.00
2022-08-11T08:39:20.651Z,50.80
2022-08-11T08:41:51.776Z,50.70
2022-08-11T08:44:37.744Z,50.40
2022-08-11T08:47:07.262Z,50.40
2022-08-11T08:49:40.411Z,50.00
2022-08-11T08:52:27.769Z,49.90
2022-08-11T08:55:05.077Z,49.30
2022-08-11T08:57:39.804Z,49.80
2022-08-11T09:00:12.524Z,49.20
2022-08-11T09:02:42.198Z,48.90
2022-08-11T09:05:12.744Z,48.50
2022-08-11T09:07:43.253Z,48.20
2022-08-11T09:10:11.544Z,47.70
2022-08-11T09:12:42.482Z,47.60
2022-08-11T09:15:11.752Z,47.00
2022-08-11T09:17:51.751Z,47.00
2022-08-11T09:20:19.984Z,46.90
2022-08-11T09:26:19.653Z,46.50
2022-08-11T09:28:47.639Z,46.40
2022-08-11T09:31:17.026Z,46.80
2022-08-11T09:33:46.964Z,46.40
2022-08-11T09:36:32.566Z,46.40
2022-08-11T09:39:19.484Z,46.00
2022-08-11T09:42:00.519Z,45.50
2022-08-11T09:44:53.136Z,45.80
2022-08-11T09:47:26.558Z,45.10
2022-08-11T09:50:02.638Z,44.60
2022-08-11T09:52:32.387Z,44.90
2022-08-11T09:54:59.919Z,44.60
2022-08-11T09:57:46.438Z,44.80
2022-08-11T10:00:15.271Z,44.40
2022-08-11T10:02:48.575Z,44.20
2022-08-11T10:05:36.859Z,44.20
2022-08-11T10:08:09.099Z,44.00
2022-08-11T10:10:37.996Z,44.00
2022-08-11T10:14:10.085Z,43.90
2022-08-11T10:16:16.092Z,43.10
2022-08-11T10:18:53.788Z,42.60
2022-08-11T10:21:29.956Z,41.90
2022-08-11T10:24:19.752Z,42.40
2022-08-11T10:26:55.026Z,41.40
2022-08-11T10:29:51.058Z,41.40
2022-08-11T10:32:57.754Z,40.60
2022-08-11T10:35:29.413Z,40.60
2022-08-11T10:38:03.559Z,40.60
2022-08-11T10:40:37.931Z,41.00
2022-08-11T10:43:10.501Z,40.40
2022-08-11T10:45:57.502Z,39.60
2022-08-11T10:48:26.738Z,39.20
2022-08-11T10:51:12.985Z,39.70
2022-08-11T10:54:07.547Z,39.60
2022-08-11T10:56:58.077Z,39.60
2022-08-11T10:59:28.311Z,38.80
2022-08-11T11:01:56.149Z,38.80
2022-08-11T11:05:09.391Z,37.80
2022-08-11T11:07:49.480Z,37.60
2022-08-11T11:10:18.835Z,37.90
2022-08-11T11:13:10.378Z,37.80
2022-08-11T11:16:04.494Z,37.40
2022-08-11T11:18:38.166Z,37.40
2022-08-11T11:21:18.658Z,37.10
2022-08-11T11:24:13.295Z,37.30
2022-08-11T11:27:00.709Z,37.30
2022-08-11T11:29:55.964Z,36.80
2022-08-11T11:33:02.433Z,36.20
2022-08-11T11:35:44.289Z,36.00
2022-08-11T11:38:14.155Z,36.00
2022-08-11T11:40:43.849Z,35.70
2022-08-11T11:43:11.194Z,36.10
2022-08-11T11:45:41.173Z,36.00
2022-08-11T11:48:08.716Z,36.30
2022-08-11T11:50:37.467Z,36.40
2022-08-11T11:53:10.108Z,36.20
2022-08-11T11:55:37.667Z,36.80
2022-08-11T11:58:23.735Z,36.40
2022-08-11T12:01:11.321Z,36.30
2022-08-11T12:03:39.635Z,36.30
2022-08-11T12:06:09.227Z,35.10
2022-08-11T12:08:37.598Z,35.50
2022-08-11T12:11:27.493Z,35.40
2022-08-11T12:13:55.956Z,35.90
2022-08-11T12:16:33.611Z,35.70
2022-08-11T12:19:11.782Z,35.70
2022-08-11T12:22:00.955Z,35.20
2022-08-11T12:24:51.378Z,35.20
2022-08-11T12:27:24.143Z,34.80
2022-08-11T12:30:05.837Z,35.00
2022-08-11T12:32:35.275Z,35.10
2022-08-11T12:35:03.178Z,35.20
2022-08-11T12:37:43.551Z,34.70
2022-08-11T12:40:42.417Z,34.80
2022-08-11T12:43:42.886Z,34.00
2022-08-11T12:46:31.711Z,34.50
2022-08-11T12:49:20.499Z,33.40
2022-08-11T12:52:11.976Z,33.40
2022-08-11T12:55:13.163Z,33.70
2022-08-11T12:58:04.283Z,33.70
2022-08-11T13:00:50.665Z,31.80
2022-08-11T13:03:39.162Z,32.00
2022-08-11T13:06:09.808Z,32.40
2022-08-11T13:08:39.309Z,32.70
2022-08-11T13:11:25.678Z,32.40
2022-08-11T13:14:15.227Z,32.00
2022-08-11T13:17:02.780Z,32.00
2022-08-11T13:19:31.118Z,32.10
2022-08-11T13:21:58.711Z,32.10
2022-08-11T13:24:28.611Z,32.10
2022-08-11T13:26:56.203Z,31.00
2022-08-11T13:29:25.230Z,31.00
2022-08-11T13:31:54.619Z,31.30
2022-08-11T13:34:25.215Z,31.70
2022-08-11T13:36:57.753Z,31.30
2022-08-11T13:39:32.434Z,31.30
2022-08-11T13:42:01.347Z,31.20
2022-08-11T13:44:31.434Z,31.60
2022-08-11T13:47:02.384Z,32.10
2022-08-11T13:49:31.068Z,32.10
2022-08-11T13:51:59.705Z,32.30
2022-08-11T13:54:33.931Z,31.90
2022-08-11T13:57:08.180Z,32.50
2022-08-11T13:59:49.933Z,31.30
2022-08-11T14:02:29.472Z,31.20
2022-08-11T14:05:08.711Z,31.60
2022-08-11T14:07:39.428Z,31.90
2022-08-11T14:10:11.996Z,31.40
2022-08-11T14:13:18.268Z,30.80
2022-08-11T14:15:48.197Z,31.20
2022-08-11T14:18:28.659Z,31.40
2022-08-11T14:21:16.812Z,31.60
2022-08-11T14:23:50.302Z,31.60
2022-08-11T14:26:28.946Z,32.20
2022-08-11T14:29:08.315Z,31.90
2022-08-11T14:31:38.377Z,31.60
2022-08-11T14:34:07.840Z,32.10
2022-08-11T14:36:45.630Z,32.10
2022-08-11T14:39:18.444Z,31.90
2022-08-11T14:42:17.673Z,32.20
2022-08-11T14:45:07.601Z,32.00
2022-08-11T14:47:37.188Z,32.00
2022-08-11T14:50:12.715Z,31.70
2022-08-11T14:52:52.262Z,31.20
2022-08-11T14:55:44.834Z,31.40
2022-08-11T14:58:20.046Z,31.40
2022-08-11T15:00:53.045Z,31.70
2022-08-11T15:03:27.607Z,32.00
2022-08-11T15:06:02.084Z,31.60
2022-08-11T15:08:52.079Z,32.00
2022-08-11T15:11:39.970Z,31.60
2022-08-11T15:14:09.849Z,31.40
2022-08-11T15:17:04.101Z,31.40
2022-08-11T15:19:36.694Z,31.30
2022-08-11T15:22:28.759Z,31.50
2022-08-11T15:24:57.976Z,31.30
2022-08-11T15:27:44.703Z,31.30
2022-08-11T15:30:33.209Z,31.20
2022-08-11T15:33:28.805Z,31.00
2022-08-11T15:36:15.320Z,30.40
2022-08-11T15:38:49.149Z,30.50
2022-08-11T15:41:44.370Z,29.70
2022-08-11T15:45:00.977Z,29.10
2022-08-11T15:47:25.105Z,28.60
2022-08-11T15:50:12.775Z,28.60
2022-08-11T15:52:49.696Z,28.30
2022-08-11T15:55:19.730Z,28.00
2022-08-11T15:58:11.642Z,28.40
2022-08-11T16:01:04.136Z,27.70
2022-08-11T16:04:14.144Z,27.50
2022-08-11T16:06:47.621Z,27.40
2022-08-11T16:09:24.656Z,27.40
2022-08-11T16:12:00.543Z,27.70
2022-08-11T16:14:47.019Z,27.40
2022-08-11T16:17:17.123Z,27.20
2022-08-11T16:19:45.787Z,27.40
2022-08-11T16:22:14.749Z,27.60
2022-08-11T16:27:04.427Z,27.80
2022-08-11T16:27:38.829Z,28.00
2022-08-11T16:30:06.505Z,28.20
2022-08-11T16:32:38.924Z,28.40
2022-08-11T16:35:28.181Z,28.20
2022-08-11T16:38:15.482Z,28.60
2022-08-11T16:40:43.917Z,28.80
2022-08-11T16:43:33.878Z,28.90
2022-08-11T16:46:22.973Z,29.20
2022-08-11T16:48:52.755Z,29.50
2022-08-11T16:51:23.073Z,29.40
2022-08-11T16:54:05.194Z,29.60
2022-08-11T16:56:51.665Z,29.50
2022-08-11T16:59:33.712Z,29.70
2022-08-11T17:02:07.729Z,29.60
2022-08-11T17:05:13.205Z,30.00
2022-08-11T17:08:02.269Z,30.20
2022-08-11T17:11:23.724Z,30.50
2022-08-11T17:14:00.782Z,30.30
2022-08-11T17:16:36.202Z,30.00
2022-08-11T17:19:13.830Z,30.50
2022-08-11T17:22:07.951Z,30.30
2022-08-11T17:24:38.078Z,30.40
2022-08-11T17:27:08.106Z,30.40
2022-08-11T17:29:53.680Z,30.70
2022-08-11T17:33:05.985Z,30.80
2022-08-11T17:35:40.392Z,31.50
2022-08-11T17:38:14.242Z,32.00
2022-08-11T17:41:05.077Z,31.70
2022-08-11T17:43:50.903Z,32.00
2022-08-11T17:46:39.617Z,32.50
2022-08-11T17:49:08.139Z,32.70
2022-08-11T17:51:55.215Z,32.70
2022-08-11T17:54:42.040Z,33.00
2022-08-11T17:57:28.492Z,32.90
2022-08-11T17:59:57.806Z,33.00
2022-08-11T18:03:08.625Z,33.60
2022-08-11T18:05:37.815Z,33.20
2022-08-11T18:08:27.585Z,33.20
2022-08-11T18:11:17.448Z,33.70
2022-08-11T18:14:22.575Z,33.40
2022-08-11T18:17:08.194Z,33.50
2022-08-11T18:19:56.395Z,34.10
2022-08-11T18:22:45.015Z,34.20
2022-08-11T18:25:38.200Z,34.50
2022-08-11T18:28:28.549Z,34.60
2022-08-11T18:31:18.133Z,34.80
2022-08-11T18:34:09.650Z,35.10
2022-08-11T18:37:00.589Z,35.30
2022-08-11T18:39:56.024Z,35.20
2022-08-11T18:42:43.448Z,35.40
2022-08-11T18:45:39.986Z,35.60
2022-08-11T18:48:34.169Z,36.00
2022-08-11T18:51:30.608Z,36.00
2022-08-11T18:54:26.601Z,36.50
2022-08-11T18:57:16.494Z,36.60
2022-08-11T19:00:03.540Z,36.80
2022-08-11T19:02:54.036Z,43.90
2022-08-11T19:06:32.302Z,43.80
2022-08-11T19:08:56.010Z,43.40
2022-08-11T19:11:45.638Z,42.50
2022-08-11T19:14:31.580Z,41.80
2022-08-11T19:17:45.045Z,41.60
2022-08-11T19:20:31.303Z,43.10
2022-08-11T19:23:17.662Z,39.30
2022-08-11T19:26:04.670Z,39.60
2022-08-11T19:28:52.189Z,40.50
2022-08-11T19:31:44.471Z,41.50
2022-08-11T19:34:34.783Z,41.70
2022-08-11T19:37:24.752Z,42.10
2022-08-11T19:40:13.416Z,42.90
2022-08-11T19:43:00.658Z,41.20
2022-08-11T19:45:52.674Z,41.40
2022-08-11T19:48:41.043Z,41.60
2022-08-11T19:51:28.731Z,41.70
2022-08-11T19:54:17.453Z,41.70
2022-08-11T19:57:04.389Z,41.90
2022-08-11T19:59:53.328Z,42.50
2022-08-11T20:02:39.398Z,42.90
2022-08-11T20:05:27.082Z,43.00
2022-08-11T20:08:16.574Z,43.60
2022-08-11T20:11:08.881Z,44.00
2022-08-11T20:13:55.627Z,44.40
2022-08-11T20:19:54.700Z,45.60
2022-08-11T20:22:34.843Z,46.20
2022-08-11T20:25:27.858Z,46.80
2022-08-11T20:28:14.096Z,47.70
2022-08-11T20:31:04.221Z,47.00
2022-08-11T20:33:51.365Z,47.50
2022-08-11T20:36:36.877Z,47.90
2022-08-11T20:39:22.997Z,47.70
2022-08-11T20:42:09.766Z,47.70
2022-08-11T20:44:57.769Z,48.00
2022-08-11T20:47:59.404Z,47.80
2022-08-11T20:50:47.246Z,48.30
2022-08-11T20:53:36.162Z,49.10
2022-08-11T20:56:28.785Z,48.70
2022-08-11T20:59:21.564Z,48.90
2022-08-11T21:02:09.775Z,49.10
2022-08-11T21:05:00.818Z,49.30
2022-08-11T21:07:57.297Z,49.60
2022-08-11T21:10:52.251Z,50.00
2022-08-11T21:13:41.700Z,50.30
2022-08-11T21:16:28.436Z,50.30
2022-08-11T21:19:59.498Z,51.40
2022-08-11T21:23:19.823Z,50.70
2022-08-11T21:26:19.411Z,50.50
2022-08-11T21:29:06.305Z,50.90
2022-08-11T21:31:53.596Z,51.60
2022-08-11T21:34:42.496Z,51.70
2022-08-11T21:37:29.679Z,51.90
2022-08-11T21:40:17.760Z,52.00
2022-08-11T21:43:06.661Z,51.80
2022-08-11T21:45:55.607Z,52.70
2022-08-11T21:48:43.509Z,51.90
2022-08-11T21:51:29.072Z,51.70
2022-08-11T21:54:16.732Z,52.40
2022-08-11T21:57:04.660Z,52.50
2022-08-11T22:00:06.848Z,52.30
2022-08-11T22:02:53.873Z,52.60
2022-08-11T22:05:39.821Z,53.00
2022-08-11T22:08:26.334Z,53.30
2022-08-11T22:11:15.080Z,53.00
2022-08-11T22:14:06.060Z,53.00
2022-08-11T22:16:56.472Z,53.00
2022-08-11T22:19:42.798Z,52.80
2022-08-11T22:22:31.365Z,52.60
2022-08-11T22:25:18.728Z,52.20
2022-08-11T22:28:04.164Z,52.40
2022-08-11T22:30:49.701Z,52.10
2022-08-11T22:33:36.562Z,51.40
2022-08-11T22:36:28.418Z,51.60
2022-08-11T22:39:15.508Z,51.60
2022-08-11T22:42:03.380Z,51.20
2022-08-11T22:44:51.245Z,51.40
2022-08-11T22:47:40.663Z,51.50
2022-08-11T22:50:27.036Z,51.60
2022-08-11T22:53:14.128Z,51.90
2022-08-11T22:56:00.039Z,52.10
2022-08-11T22:58:46.532Z,52.20
2022-08-11T23:01:38.281Z,52.50
2022-08-11T23:04:42.320Z,53.20
2022-08-11T23:07:49.598Z,53.00
2022-08-11T23:10:34.828Z,53.00
2022-08-11T23:13:22.310Z,53.00
2022-08-11T23:16:08.419Z,53.20
2022-08-11T23:18:54.175Z,53.30
2022-08-11T23:21:40.023Z,53.40
2022-08-11T23:24:26.504Z,53.60
2022-08-11T23:27:12.049Z,53.80
2022-08-11T23:29:58.529Z,53.80
2022-08-11T23:32:46.132Z,53.80
2022-08-11T23:35:51.925Z,54.00
2022-08-11T23:38:40.892Z,54.10
2022-08-11T23:41:26.409Z,54.40
2022-08-11T23:44:13.047Z,54.20
2022-08-11T23:46:58.957Z,54.50
2022-08-11T23:49:46.070Z,56.00
2022-08-11T23:52:32.230Z,55.70
2022-08-11T23:55:18.257Z,56.50
2022-08-11T23:58:06.753Z,56.50
